Archival Weather

Central Park

Central Park, New York (KNYC)

Report from: Thursday, September 21, 2023 8:51 AM EDT
Current time: Sunday, February 25, 2024 3:39 PM EST

Current weather – Weather history – Daily summaries
Weather forecast

Temperature15.0°C (59.0°F)
Dew point8.9°C (48.0°F)
Winds 3 kts (1.5 m/s, 3.5 mph) Vrb
Winds variableWinds variable
Visibility10 mi. (16.1 km)
Clouds Sky clear
Altimeter30.30 in.Hg (1026 mB)
Relative humidity67 %
Density altitude-240 ft. (-73 m)
Sea-level pressure102.5 kPa (1025 mB, 30.27 in.Hg)
Remarks Fully automated report
System requires maintenance
Automated weather observing station with precipitation discriminator
Flight conditions Visual Meteorological Conditions
Raw dataKNYC 211251Z AUTO VRB03KT 10SM CLR 15/09 A3030 RMK AO2 SLP252 T01500089 $
An error has occurred. This application may no longer respond until reloaded. Reload 🗙